Don Miguel Hidalgo Y Costilla International Airport
MMGL : now visible

Airfield :











YOU CAN JOIN US ON...

 
LOGIN :

Register | Disclaimer

   EN    FR    IT 

 









Legend :    VFR   Marginal VFR   IFR   Intensive IFR   Very Intensive IFR
Visi :
Ceiling :
>= 8 km
>= 3000ft
5 to 8 km
1000 to 3000 ft
1500m to 5 km
500 to 1000 ft
800 to 1500m
200 to 500 ft
< 800m
< 200 ft
Symbols :   Thunderstorms  Fog  Heavy snow  Heavy precipitations  Wind > 20 kt







- Airport Elevation : 5016 ft
- IATA code : GDL


MMGL - Don Miguel Hidalgo Y Costilla International

CURRENT METAR :
  • 190746Z 00000KT 8SM SKC 13/08 A3014

EXPIRED METARs :
  • 190642Z 34004KT 8SM SKC 16/08 A3014
  • 190548Z 28007KT 8SM SKC 17/08 A3014 RMK SLP091 52006 956
  • 190441Z 26010KT 8SM SKC 18/07 A3014

TAF TAF MMGL
Valid from the 19 at 06:00 until the 20 at 12:00 UTC


190425Z 1906/2012 30005KT P6SM SKC TX27/1920Z TN11/1911Z
FM191800 24016KT P6SM BKN025 BKN080
FM200600 29005KT P6SM SCT030
MMFR FIR / North America



MET'MAP, your aeronautical weather chart ! - Copyright ORBIFLY December 2007 - Disclaimer

ORBIFLY MET'MAP TEAM :

Programming & Development : Alexandra Zaïnal
Concept & Development : Baudouin d'Aumeries
Co-Development & Prog : Marc-Olivier Méhu
Technical & hardware support : Manuel Goepfert

Contact : metmap@orbifly.com




SOURCES & CREDITS :

   NOAA       Earth
Advisory